createdAt,value
2022-09-29T00:00:51.084Z,85399.19
2022-09-29T00:03:19.016Z,85399.13
2022-09-29T00:05:50.765Z,85388.03
2022-09-29T00:08:19.304Z,85391.50
2022-09-29T00:10:46.617Z,85367.91
2022-09-29T00:13:15.207Z,85376.41
2022-09-29T00:15:42.450Z,85359.91
2022-09-29T00:18:14.919Z,85372.19
2022-09-29T00:20:42.459Z,85351.34
2022-09-29T00:23:09.442Z,85385.78
2022-09-29T00:25:36.407Z,85356.03
2022-09-29T00:28:03.480Z,85356.72
2022-09-29T00:30:30.458Z,85356.53
2022-09-29T00:32:57.467Z,85352.38
2022-09-29T00:35:24.359Z,85359.19
2022-09-29T00:37:51.300Z,85354.84
2022-09-29T00:40:18.261Z,85359.06
2022-09-29T00:42:45.713Z,85334.66
2022-09-29T00:45:24.760Z,85361.91
2022-09-29T00:48:14.825Z,85356.03
2022-09-29T00:50:52.170Z,85328.81
2022-09-29T00:53:21.882Z,85325.34
2022-09-29T00:56:03.409Z,85313.47
2022-09-29T00:58:33.495Z,85344.78
2022-09-29T01:01:01.383Z,85292.81
2022-09-29T01:03:34.020Z,85323.19
2022-09-29T01:06:10.549Z,85344.97
2022-09-29T01:08:44.057Z,85343.53
2022-09-29T01:11:13.204Z,85323.53
2022-09-29T01:13:41.901Z,85329.28
2022-09-29T01:16:09.143Z,85313.47
2022-09-29T01:18:36.506Z,85322.91
2022-09-29T01:21:39.703Z,85340.56
2022-09-29T01:24:29.554Z,85333.22
2022-09-29T01:27:25.972Z,85351.09
2022-09-29T01:29:55.910Z,85355.91
2022-09-29T01:32:44.292Z,85360.00
2022-09-29T01:35:17.155Z,85355.28
2022-09-29T01:38:10.188Z,85343.88
2022-09-29T01:40:46.278Z,85351.44
2022-09-29T01:43:21.635Z,85338.09
2022-09-29T01:46:02.040Z,85351.16
2022-09-29T01:48:38.761Z,85351.25
2022-09-29T01:51:12.309Z,85341.56
2022-09-29T01:53:48.336Z,85360.91
2022-09-29T01:56:22.122Z,85346.94
2022-09-29T01:59:05.623Z,85323.31
2022-09-29T02:01:39.092Z,85360.25
2022-09-29T02:04:15.519Z,85356.38
2022-09-29T02:06:58.242Z,85372.84
2022-09-29T02:09:30.859Z,85376.47
2022-09-29T02:12:01.229Z,85334.16
2022-09-29T02:14:33.620Z,85346.78
2022-09-29T02:17:10.996Z,85336.41
2022-09-29T02:19:40.998Z,85365.41
2022-09-29T02:22:08.179Z,85358.06
2022-09-29T02:24:35.305Z,85370.69
2022-09-29T02:27:03.945Z,85351.47
2022-09-29T02:29:32.849Z,85368.66
2022-09-29T02:32:03.008Z,85357.56
2022-09-29T02:34:35.782Z,85340.00
2022-09-29T02:37:14.706Z,85368.47
2022-09-29T02:39:41.601Z,85367.09
2022-09-29T02:42:23.560Z,85371.16
2022-09-29T02:45:29.138Z,85372.41
2022-09-29T02:48:16.643Z,85371.44
2022-09-29T02:50:57.000Z,85368.72
2022-09-29T02:53:54.666Z,85371.44
2022-09-29T02:56:59.122Z,85370.22
2022-09-29T02:59:51.186Z,85353.91
2022-09-29T03:02:25.195Z,85376.38
2022-09-29T03:04:53.745Z,85348.63
2022-09-29T03:07:21.849Z,85366.06
2022-09-29T03:09:49.085Z,85323.97
2022-09-29T03:12:18.320Z,85335.28
2022-09-29T03:14:45.401Z,85362.28
2022-09-29T03:17:12.532Z,85336.06
2022-09-29T03:19:39.637Z,85360.19
2022-09-29T03:22:06.629Z,85362.81
2022-09-29T03:24:33.652Z,85325.66
2022-09-29T03:27:00.746Z,85380.06
2022-09-29T03:29:27.740Z,85371.09
2022-09-29T03:31:54.724Z,85371.97
2022-09-29T03:34:21.744Z,85342.03
2022-09-29T03:36:48.690Z,85366.53
2022-09-29T03:39:15.597Z,85373.94
2022-09-29T03:41:42.657Z,85369.03
2022-09-29T03:44:09.619Z,85363.75
2022-09-29T03:46:36.599Z,85343.38
2022-09-29T03:49:03.642Z,85354.78
2022-09-29T03:51:30.703Z,85358.19
2022-09-29T03:53:57.819Z,85347.31
2022-09-29T03:56:24.766Z,85324.28
2022-09-29T03:58:51.713Z,85346.47
2022-09-29T04:01:18.668Z,85361.84
2022-09-29T04:03:45.715Z,85342.81
2022-09-29T04:06:12.926Z,85355.28
2022-09-29T04:08:40.069Z,85330.88
2022-09-29T04:11:07.431Z,85351.78
2022-09-29T04:13:34.480Z,85333.00
2022-09-29T04:16:06.271Z,85342.25
2022-09-29T04:18:33.383Z,85366.31
2022-09-29T04:21:05.174Z,85367.22
2022-09-29T04:23:32.094Z,85365.75
2022-09-29T04:26:01.273Z,85363.16
2022-09-29T04:28:28.427Z,85338.88
2022-09-29T04:30:55.476Z,85352.78
2022-09-29T04:33:22.426Z,85352.00
2022-09-29T04:35:49.408Z,85338.69
2022-09-29T04:38:16.430Z,85372.72
2022-09-29T04:40:43.526Z,85381.13
2022-09-29T04:43:10.634Z,85384.06
2022-09-29T04:45:37.669Z,85352.66
2022-09-29T04:48:04.988Z,85361.06
2022-09-29T04:50:32.142Z,85374.78
2022-09-29T04:52:59.476Z,85364.28
2022-09-29T04:55:26.714Z,85359.66
2022-09-29T04:57:53.837Z,85350.25
2022-09-29T05:00:21.599Z,85370.53
2022-09-29T05:02:49.926Z,85364.34
2022-09-29T05:05:17.610Z,85382.56
2022-09-29T05:07:45.914Z,85377.25
2022-09-29T05:10:12.936Z,85391.22
2022-09-29T05:12:39.986Z,85382.56
2022-09-29T05:15:07.506Z,85382.06
2022-09-29T05:17:34.690Z,85394.88
2022-09-29T05:20:01.906Z,85362.03
2022-09-29T05:22:28.858Z,85375.63
2022-09-29T05:24:55.799Z,85386.81
2022-09-29T05:27:22.877Z,85372.16
2022-09-29T05:29:52.477Z,85383.63
2022-09-29T05:32:19.489Z,85389.13
2022-09-29T05:34:46.492Z,85368.91
2022-09-29T05:37:13.797Z,85378.84
2022-09-29T05:39:42.126Z,85378.91
2022-09-29T05:42:12.033Z,85383.69
2022-09-29T05:44:39.160Z,85392.16
2022-09-29T05:47:06.362Z,85387.34
2022-09-29T05:49:33.381Z,85374.53
2022-09-29T05:52:00.701Z,85380.81
2022-09-29T05:54:27.789Z,85376.50
2022-09-29T05:56:55.084Z,85351.91
2022-09-29T05:59:22.211Z,85335.53
2022-09-29T06:01:49.224Z,85366.72
2022-09-29T06:04:17.604Z,85344.47
2022-09-29T06:06:44.786Z,85353.63
2022-09-29T06:09:12.048Z,85375.56
2022-09-29T06:11:39.081Z,85385.97
2022-09-29T06:14:06.186Z,85388.41
2022-09-29T06:16:34.448Z,85375.38
2022-09-29T06:19:02.414Z,85374.44
2022-09-29T06:21:30.871Z,85378.16
2022-09-29T06:23:58.661Z,85373.63
2022-09-29T06:26:27.330Z,85373.13
2022-09-29T06:28:55.721Z,85407.59
2022-09-29T06:31:26.096Z,85377.50
2022-09-29T06:33:53.615Z,85386.56
2022-09-29T06:37:12.368Z,85379.38
2022-09-29T06:39:39.284Z,85398.19
2022-09-29T06:42:06.292Z,85392.47
2022-09-29T06:44:33.437Z,85387.03
2022-09-29T06:47:00.414Z,85383.84
2022-09-29T06:49:27.498Z,85389.13
2022-09-29T06:51:54.462Z,85397.94
2022-09-29T06:54:25.341Z,85383.69
2022-09-29T06:56:53.921Z,85364.69
2022-09-29T06:59:21.230Z,85397.16
2022-09-29T07:01:51.415Z,85400.66
2022-09-29T07:04:22.222Z,85421.66
2022-09-29T07:06:50.114Z,85413.81
2022-09-29T07:09:17.699Z,85414.06
2022-09-29T07:11:46.944Z,85427.97
2022-09-29T07:14:15.214Z,85423.72
2022-09-29T07:16:42.496Z,85430.53
2022-09-29T07:19:10.229Z,85418.31
2022-09-29T07:21:37.243Z,85436.19
2022-09-29T07:24:04.419Z,85438.31
2022-09-29T07:26:31.419Z,85441.38
2022-09-29T07:28:58.659Z,85425.97
2022-09-29T07:31:25.975Z,85411.03
2022-09-29T07:33:53.260Z,85434.78
2022-09-29T07:36:21.464Z,85427.75
2022-09-29T07:38:50.595Z,85425.97
2022-09-29T07:41:19.726Z,85446.91
2022-09-29T07:43:46.758Z,85460.66
2022-09-29T07:46:13.963Z,85445.47
2022-09-29T07:48:41.333Z,85466.06
2022-09-29T07:51:16.734Z,85471.41
2022-09-29T07:53:44.269Z,85478.19
2022-09-29T07:56:14.360Z,85490.13
2022-09-29T07:58:42.334Z,85477.66
2022-09-29T08:01:12.954Z,85500.47
2022-09-29T08:03:41.962Z,85510.97
2022-09-29T08:06:09.662Z,85488.53
2022-09-29T08:08:38.457Z,85477.50
2022-09-29T08:11:19.251Z,85509.72
2022-09-29T08:13:53.316Z,85495.56
2022-09-29T08:16:21.059Z,85514.50
2022-09-29T08:18:48.184Z,85493.78
2022-09-29T08:21:15.839Z,85498.69
2022-09-29T08:23:43.904Z,85508.53
2022-09-29T08:26:16.687Z,85508.28
2022-09-29T08:28:44.573Z,85517.94
2022-09-29T08:31:14.519Z,85517.84
2022-09-29T08:33:41.640Z,85517.50
2022-09-29T08:36:14.924Z,85514.28
2022-09-29T08:38:52.853Z,85515.72
2022-09-29T08:41:25.838Z,85513.59
2022-09-29T08:43:57.470Z,85496.66
2022-09-29T08:46:36.296Z,85497.50
2022-09-29T08:49:28.647Z,85503.72
2022-09-29T08:52:16.454Z,85484.09
2022-09-29T08:54:49.410Z,85513.53
2022-09-29T08:57:19.978Z,85489.94
2022-09-29T08:59:57.881Z,85508.56
2022-09-29T09:03:14.409Z,85525.50
2022-09-29T09:06:01.315Z,85517.47
2022-09-29T09:09:09.659Z,85523.91
2022-09-29T09:11:54.081Z,85511.03
2022-09-29T09:14:42.485Z,85534.56
2022-09-29T09:17:25.677Z,85525.94
2022-09-29T09:19:57.790Z,85464.97
2022-09-29T09:22:32.419Z,85521.59
2022-09-29T09:25:11.741Z,85513.97
2022-09-29T09:27:44.589Z,85510.00
2022-09-29T09:30:18.019Z,85515.25
2022-09-29T09:32:54.418Z,85513.78
2022-09-29T09:35:24.339Z,85523.19
2022-09-29T09:37:54.686Z,85517.94
2022-09-29T09:40:26.360Z,85506.72
2022-09-29T09:43:03.124Z,85493.84
2022-09-29T09:45:34.751Z,85501.31
2022-09-29T09:48:22.104Z,85499.16
2022-09-29T09:50:50.776Z,85469.09
2022-09-29T09:53:27.133Z,85470.91
2022-09-29T09:56:14.606Z,85493.34
2022-09-29T09:59:37.493Z,85489.34
2022-09-29T10:02:04.545Z,85483.97
2022-09-29T10:04:34.057Z,85484.22
2022-09-29T10:07:01.139Z,85479.44
2022-09-29T10:09:29.214Z,85501.97
2022-09-29T10:11:57.446Z,85472.84
2022-09-29T10:14:26.508Z,85484.22
2022-09-29T10:17:10.607Z,85514.41
2022-09-29T10:20:00.338Z,85522.00
2022-09-29T10:22:30.037Z,85515.03
2022-09-29T10:25:20.004Z,85510.31
2022-09-29T10:27:53.340Z,85507.13
2022-09-29T10:30:33.495Z,85496.91
2022-09-29T10:33:04.380Z,85523.25
2022-09-29T10:35:38.056Z,85519.94
2022-09-29T10:38:24.402Z,85520.66
2022-09-29T10:41:04.030Z,85524.59
2022-09-29T10:43:42.545Z,85533.66
2022-09-29T10:46:37.826Z,85531.47
2022-09-29T10:49:17.108Z,85531.47
2022-09-29T10:51:56.798Z,85506.06
2022-09-29T10:54:28.718Z,85483.97
2022-09-29T10:56:57.462Z,85502.00
2022-09-29T10:59:26.158Z,85492.84
2022-09-29T11:01:58.966Z,85492.94
2022-09-29T11:04:36.585Z,85490.50
2022-09-29T11:07:21.906Z,85522.00
2022-09-29T11:09:50.906Z,85521.28
2022-09-29T11:12:27.158Z,85520.22
2022-09-29T11:14:54.218Z,85513.53
2022-09-29T11:17:24.008Z,85508.13
2022-09-29T11:19:53.055Z,85527.31
2022-09-29T11:22:51.123Z,85508.06
2022-09-29T11:25:30.544Z,85506.84
2022-09-29T11:28:28.564Z,85528.25
2022-09-29T11:31:16.408Z,85521.28
2022-09-29T11:34:27.905Z,85522.91
2022-09-29T11:37:12.003Z,85508.69
2022-09-29T11:39:45.694Z,85506.50
2022-09-29T11:42:43.860Z,85510.75
2022-09-29T11:48:11.549Z,85514.22
2022-09-29T11:50:57.059Z,85517.66
2022-09-29T11:53:31.218Z,85514.50
2022-09-29T11:56:24.389Z,85513.38
2022-09-29T11:59:10.558Z,85504.47
2022-09-29T12:01:43.805Z,85510.13
2022-09-29T12:04:23.858Z,85503.25
2022-09-29T12:07:02.682Z,85510.19
2022-09-29T12:09:58.782Z,85520.22
2022-09-29T12:12:36.666Z,85497.97
2022-09-29T12:15:08.417Z,85527.56
2022-09-29T12:17:44.383Z,85507.31
2022-09-29T12:20:34.657Z,85523.66
2022-09-29T12:23:05.826Z,85530.63
2022-09-29T12:25:38.262Z,85518.81
2022-09-29T12:28:15.298Z,85510.25
2022-09-29T12:30:51.467Z,85496.75
2022-09-29T12:33:24.230Z,85532.25
2022-09-29T12:36:28.033Z,85534.38
2022-09-29T12:39:00.520Z,85511.38
2022-09-29T12:41:36.064Z,85531.19
2022-09-29T12:44:16.854Z,85535.47
2022-09-29T12:46:54.822Z,85521.28
2022-09-29T12:49:29.700Z,85537.06
2022-09-29T12:51:57.364Z,85536.38
2022-09-29T12:54:28.781Z,85535.91
2022-09-29T12:57:06.363Z,85532.75
2022-09-29T12:59:57.565Z,85517.22
2022-09-29T13:02:39.419Z,85538.59
2022-09-29T13:05:06.396Z,85536.31
2022-09-29T13:07:51.249Z,85538.34
2022-09-29T13:10:57.004Z,85535.41
2022-09-29T13:13:47.062Z,85526.59
2022-09-29T13:16:36.501Z,85536.75
2022-09-29T13:19:39.729Z,85547.53
2022-09-29T13:22:41.859Z,85549.50
2022-09-29T13:25:28.539Z,85542.25
2022-09-29T13:27:58.751Z,85539.28
2022-09-29T13:30:37.283Z,85521.81
2022-09-29T13:33:18.859Z,85497.94
2022-09-29T13:35:48.657Z,85569.63
2022-09-29T13:38:23.893Z,85552.72
2022-09-29T13:41:15.379Z,85558.00
2022-09-29T13:43:51.277Z,85566.78
2022-09-29T13:46:30.391Z,85565.34
2022-09-29T13:49:09.652Z,85560.13
2022-09-29T13:51:47.982Z,85552.47
2022-09-29T13:54:31.685Z,85553.44
2022-09-29T13:57:12.634Z,85557.41
2022-09-29T14:00:02.529Z,85577.25
2022-09-29T14:02:48.901Z,85568.06
2022-09-29T14:05:25.114Z,85571.66
2022-09-29T14:07:55.079Z,85568.94
2022-09-29T14:10:39.496Z,85569.91
2022-09-29T14:13:06.386Z,85572.59
2022-09-29T14:15:41.743Z,85569.31
2022-09-29T14:18:27.109Z,85535.72
2022-09-29T14:21:03.793Z,85563.28
2022-09-29T14:23:45.986Z,85573.34
2022-09-29T14:26:48.601Z,85563.59
2022-09-29T14:29:28.961Z,85563.66
2022-09-29T14:31:59.348Z,85556.03
2022-09-29T14:34:30.636Z,85567.78
2022-09-29T14:37:00.648Z,85564.69
2022-09-29T14:39:29.815Z,85568.25
2022-09-29T14:41:56.967Z,85565.22
2022-09-29T14:44:54.895Z,85557.47
2022-09-29T14:48:03.896Z,85579.16
2022-09-29T14:51:12.554Z,85576.50
2022-09-29T14:53:58.828Z,85573.53
2022-09-29T14:57:04.046Z,85578.91
2022-09-29T14:59:47.342Z,85567.47
2022-09-29T15:02:20.890Z,85576.66
2022-09-29T15:04:48.458Z,85529.53
2022-09-29T15:07:18.868Z,85572.44
2022-09-29T15:09:57.393Z,85576.16
2022-09-29T15:12:31.786Z,85581.84
2022-09-29T15:15:00.414Z,85573.53
2022-09-29T15:17:49.567Z,85577.22
2022-09-29T15:20:23.680Z,85579.66
2022-09-29T15:23:05.870Z,85586.38
2022-09-29T15:25:37.521Z,85584.53
2022-09-29T15:28:45.034Z,85579.94
2022-09-29T15:31:20.117Z,85578.00
2022-09-29T15:33:48.128Z,85577.81
2022-09-29T15:36:18.326Z,85583.53
2022-09-29T15:38:45.688Z,85558.00
2022-09-29T15:41:16.894Z,85581.81
2022-09-29T15:43:54.363Z,85570.41
2022-09-29T15:46:35.348Z,85578.59
2022-09-29T15:49:18.310Z,85580.25
2022-09-29T15:51:57.242Z,85573.63
2022-09-29T15:54:26.413Z,85577.53
2022-09-29T15:57:12.122Z,85570.56
2022-09-29T15:59:39.094Z,85587.41
2022-09-29T16:02:08.090Z,85576.63
2022-09-29T16:04:36.175Z,85573.41
2022-09-29T16:07:03.891Z,85584.28
2022-09-29T16:09:31.107Z,85560.41
2022-09-29T16:11:58.921Z,85553.34
2022-09-29T16:14:28.340Z,85576.44
2022-09-29T16:16:59.070Z,85594.25
2022-09-29T16:19:32.291Z,85590.69
2022-09-29T16:22:06.594Z,85600.88
2022-09-29T16:24:53.418Z,85579.63
2022-09-29T16:27:40.901Z,85579.28
2022-09-29T16:30:26.437Z,85605.59
2022-09-29T16:32:57.332Z,85578.88
2022-09-29T16:35:57.537Z,85603.19
2022-09-29T16:39:01.187Z,85609.69
2022-09-29T16:41:35.951Z,85574.63
2022-09-29T16:44:09.893Z,85607.28
2022-09-29T16:46:52.310Z,85609.47
2022-09-29T16:49:55.326Z,85617.56
2022-09-29T16:52:50.785Z,85616.03
2022-09-29T16:55:22.126Z,85607.94
2022-09-29T16:57:55.123Z,85615.34
2022-09-29T17:00:22.738Z,85603.13
2022-09-29T17:02:53.580Z,85627.50
2022-09-29T17:05:22.086Z,85608.78
2022-09-29T17:07:50.176Z,85633.97
2022-09-29T17:10:21.528Z,85639.97
2022-09-29T17:12:48.493Z,85637.72
2022-09-29T17:15:17.268Z,85634.59
2022-09-29T17:17:48.617Z,85615.75
2022-09-29T17:20:18.802Z,85635.75
2022-09-29T17:22:46.419Z,85607.19
2022-09-29T17:25:14.167Z,85621.63
2022-09-29T17:28:02.931Z,85642.22
2022-09-29T17:30:29.990Z,85650.16
2022-09-29T17:32:59.065Z,85659.84
2022-09-29T17:35:32.137Z,85652.13
2022-09-29T17:37:59.518Z,85658.34
2022-09-29T17:40:33.505Z,85665.28
2022-09-29T17:43:02.292Z,85625.94
2022-09-29T17:45:30.642Z,85666.66
2022-09-29T17:47:58.438Z,85669.28
2022-09-29T17:50:56.474Z,85659.44
2022-09-29T17:53:25.523Z,85651.00
2022-09-29T17:55:56.004Z,85673.13
2022-09-29T17:58:23.547Z,85641.38
2022-09-29T18:00:52.957Z,85644.19
2022-09-29T18:03:21.663Z,85664.44
2022-09-29T18:05:56.199Z,85633.69
2022-09-29T18:08:26.059Z,85665.97
2022-09-29T18:10:54.600Z,85685.84
2022-09-29T18:13:23.594Z,85673.59
2022-09-29T18:15:50.765Z,85700.13
2022-09-29T18:18:20.878Z,85696.84
2022-09-29T18:20:50.750Z,85696.84
2022-09-29T18:23:20.568Z,85680.47
2022-09-29T18:25:50.162Z,85657.88
2022-09-29T18:28:18.192Z,85689.47
2022-09-29T18:30:49.139Z,85686.50
2022-09-29T18:33:18.979Z,85670.44
2022-09-29T18:35:51.901Z,85681.53
2022-09-29T18:38:18.855Z,85681.47
2022-09-29T18:40:47.316Z,85698.31
2022-09-29T18:43:15.188Z,85697.63
2022-09-29T18:45:43.587Z,85696.13
2022-09-29T18:48:12.639Z,85657.19
2022-09-29T18:50:51.274Z,85679.94
2022-09-29T18:53:21.187Z,85695.44
2022-09-29T18:55:52.486Z,85711.69
2022-09-29T18:58:21.212Z,85686.91
2022-09-29T19:00:50.642Z,85713.13
2022-09-29T19:03:19.332Z,85700.63
2022-09-29T19:05:48.137Z,85681.91
2022-09-29T19:08:16.443Z,85731.50
2022-09-29T19:10:54.948Z,85726.72
2022-09-29T19:13:22.645Z,85744.41
2022-09-29T19:15:49.806Z,85726.28
2022-09-29T19:18:25.292Z,85728.91
2022-09-29T19:20:55.705Z,85724.09
2022-09-29T19:23:25.367Z,85697.06
2022-09-29T19:25:53.920Z,85693.50
2022-09-29T19:28:22.508Z,85720.97
2022-09-29T19:30:50.302Z,85726.41
2022-09-29T19:33:20.429Z,85695.53
2022-09-29T19:35:51.323Z,85702.09
2022-09-29T19:38:19.658Z,85709.56
2022-09-29T19:40:47.346Z,85709.19
2022-09-29T19:43:14.697Z,85711.81
2022-09-29T19:45:43.345Z,85726.94
2022-09-29T19:48:14.967Z,85681.63
2022-09-29T19:51:00.884Z,85724.53
2022-09-29T19:53:28.472Z,85718.59
2022-09-29T19:55:55.428Z,85702.91
2022-09-29T19:58:23.813Z,85710.22
2022-09-29T20:00:56.873Z,85728.63
2022-09-29T20:03:23.923Z,85700.28
2022-09-29T20:05:50.916Z,85710.47
2022-09-29T20:08:17.839Z,85726.00
2022-09-29T20:10:44.782Z,85742.75
2022-09-29T20:13:14.829Z,85716.00
2022-09-29T20:15:45.014Z,85754.19
2022-09-29T20:18:14.020Z,85698.63
2022-09-29T20:20:42.507Z,85713.47
2022-09-29T20:23:09.464Z,85751.00
2022-09-29T20:25:36.338Z,85751.75
2022-09-29T20:28:05.411Z,85761.56
2022-09-29T20:30:32.456Z,85739.81
2022-09-29T20:32:59.424Z,85757.47
2022-09-29T20:35:26.426Z,85754.69
2022-09-29T20:37:53.701Z,85757.75
2022-09-29T20:40:20.628Z,85760.72
2022-09-29T20:42:48.809Z,85765.63
2022-09-29T20:45:16.390Z,85770.41
2022-09-29T20:47:43.655Z,85743.44
2022-09-29T20:50:10.705Z,85757.06
2022-09-29T20:52:37.527Z,85762.50
2022-09-29T20:55:05.016Z,85753.06
2022-09-29T20:57:32.505Z,85741.22
2022-09-29T20:59:59.651Z,85744.53
2022-09-29T21:02:27.364Z,85765.78
2022-09-29T21:04:54.334Z,85724.75
2022-09-29T21:07:36.292Z,85776.69
2022-09-29T21:10:05.674Z,85765.97
2022-09-29T21:12:33.095Z,85755.00
2022-09-29T21:15:00.730Z,85775.44
2022-09-29T21:17:27.764Z,85780.09
2022-09-29T21:19:55.238Z,85764.41
2022-09-29T21:22:27.229Z,85773.88
2022-09-29T21:24:55.063Z,85735.84
2022-09-29T21:27:22.227Z,85752.22
2022-09-29T21:29:49.163Z,85775.94
2022-09-29T21:32:16.131Z,85784.13
2022-09-29T21:34:43.123Z,85759.28
2022-09-29T21:37:10.257Z,85754.31
2022-09-29T21:39:37.304Z,85778.56
2022-09-29T21:42:04.670Z,85778.31
2022-09-29T21:44:31.725Z,85789.31
2022-09-29T21:46:58.795Z,85785.16
2022-09-29T21:49:25.791Z,85747.50
2022-09-29T21:51:52.761Z,85781.16
2022-09-29T21:54:23.016Z,85788.22
2022-09-29T21:56:51.311Z,85794.00
2022-09-29T21:59:20.725Z,85797.03
2022-09-29T22:01:48.311Z,85795.06
2022-09-29T22:04:16.152Z,85794.75
2022-09-29T22:06:45.031Z,85786.38
2022-09-29T22:09:16.082Z,85797.50
2022-09-29T22:11:43.153Z,85789.00
2022-09-29T22:14:13.015Z,85762.69
2022-09-29T22:16:40.616Z,85763.06
2022-09-29T22:19:24.664Z,85793.78
2022-09-29T22:21:53.901Z,85803.72
2022-09-29T22:24:21.153Z,85779.81
2022-09-29T22:26:48.284Z,85806.75
2022-09-29T22:29:15.560Z,85771.06
2022-09-29T22:31:42.717Z,85750.06
2022-09-29T22:34:11.410Z,85783.47
2022-09-29T22:36:39.504Z,85810.06
2022-09-29T22:39:07.691Z,85754.16
2022-09-29T22:41:37.043Z,85775.94
2022-09-29T22:44:04.658Z,85798.22
2022-09-29T22:46:32.450Z,85722.59
2022-09-29T22:48:59.734Z,85810.06
2022-09-29T22:51:27.388Z,85791.00
2022-09-29T22:53:54.440Z,85803.22
2022-09-29T22:56:28.609Z,85806.50
2022-09-29T22:59:01.236Z,85803.91
2022-09-29T23:01:29.287Z,85802.00
2022-09-29T23:03:56.412Z,85769.84
2022-09-29T23:06:23.422Z,85796.84
2022-09-29T23:08:50.649Z,85788.09
2022-09-29T23:11:19.583Z,85808.56
2022-09-29T23:13:47.714Z,85811.16
2022-09-29T23:16:16.701Z,85813.94
2022-09-29T23:18:45.829Z,85814.63
2022-09-29T23:21:19.635Z,85816.88
2022-09-29T23:23:59.730Z,85814.69
2022-09-29T23:26:29.198Z,85774.06
2022-09-29T23:28:56.265Z,85822.53
2022-09-29T23:31:23.791Z,85786.19
2022-09-29T23:33:52.999Z,85819.03
2022-09-29T23:36:20.343Z,85821.84
2022-09-29T23:39:05.712Z,85811.81
2022-09-29T23:41:33.432Z,85796.38
2022-09-29T23:44:05.674Z,85832.47
2022-09-29T23:46:35.890Z,85819.09
2022-09-29T23:49:09.421Z,85797.16
2022-09-29T23:51:38.776Z,85826.41
2022-09-29T23:54:07.533Z,85834.19
2022-09-29T23:56:35.166Z,85814.63
2022-09-29T23:59:02.436Z,85809.91
